Time;durP1;ratioP1;P1;durP2;ratioP2;P2;SDS_P1;SDS_P2;PMS_P1;PMS_P2;Temp;Humidity;BMP_temperature;BMP_pressure;BME280_temperature;BME280_humidity;BME280_pressure;Samples;Min_cycle;Max_cycle;Signal;HPM_P1;HPM_P2
2023/07/24 00:00:44;;;;;;;6.28;2.42;;;;;;;25.54;53.63;100280.88;5035552;28;20055;-62
2023/07/24 00:03:09;;;;;;;6.13;1.95;;;;;;;25.51;53.48;100275.88;5053158;28;20041;-63
2023/07/24 00:05:34;;;;;;;3.30;2.13;;;;;;;25.53;53.83;100281.09;5053028;28;20112;-62
2023/07/24 00:08:00;;;;;;;3.88;1.95;;;;;;;25.54;53.69;100280.88;5052035;28;20445;-63
2023/07/24 00:10:26;;;;;;;3.83;1.75;;;;;;;25.54;53.54;100278.13;5053125;28;20438;-62
2023/07/24 00:12:51;;;;;;;4.35;1.95;;;;;;;25.60;53.75;100274.41;5034727;28;20044;-62
2023/07/24 00:15:16;;;;;;;2.55;1.88;;;;;;;25.64;53.32;100272.84;5051444;28;20052;-63
2023/07/24 00:17:42;;;;;;;6.32;2.05;;;;;;;25.67;53.72;100266.06;5051810;28;20032;-64
2023/07/24 00:20:08;;;;;;;6.05;2.03;;;;;;;25.68;53.11;100263.09;5051648;28;20033;-61
2023/07/24 00:22:33;;;;;;;6.60;2.30;;;;;;;25.73;54.04;100274.16;5051634;28;20033;-62
2023/07/24 00:24:58;;;;;;;5.43;2.50;;;;;;;25.74;53.29;100267.56;5052763;28;20033;-63
2023/07/24 00:27:24;;;;;;;8.10;2.05;;;;;;;25.75;53.50;100266.50;5047919;28;20115;-63
2023/07/24 00:29:49;;;;;;;5.38;2.53;;;;;;;25.72;53.64;100263.41;5063900;28;20025;-63
2023/07/24 00:32:15;;;;;;;1.90;1.50;;;;;;;25.70;53.66;100243.63;5051598;28;20032;-62
2023/07/24 00:34:40;;;;;;;6.30;2.08;;;;;;;25.71;53.50;100251.59;5052617;28;20032;-61
2023/07/24 00:37:06;;;;;;;4.80;2.08;;;;;;;25.71;53.22;100243.34;5051451;28;20053;-63
2023/07/24 00:39:32;;;;;;;3.72;2.13;;;;;;;25.69;53.15;100242.78;5052860;28;20033;-62
2023/07/24 00:41:57;;;;;;;6.32;2.50;;;;;;;25.70;53.59;100238.13;5052861;28;20029;-63
2023/07/24 00:44:23;;;;;;;5.70;2.10;;;;;;;25.69;53.34;100237.28;5034997;28;20097;-62
2023/07/24 00:46:49;;;;;;;5.85;2.00;;;;;;;25.64;53.28;100228.97;5052800;28;20111;-62
2023/07/24 00:49:14;;;;;;;5.60;2.15;;;;;;;25.64;53.62;100228.97;5051112;28;20029;-61
2023/07/24 00:51:40;;;;;;;3.50;2.22;;;;;;;25.63;53.50;100213.56;5052745;28;20514;-62
2023/07/24 00:54:06;;;;;;;3.10;2.13;;;;;;;25.63;53.25;100210.00;5051366;28;20032;-61
2023/07/24 00:56:32;;;;;;;2.58;1.75;;;;;;;25.60;53.49;100200.31;5051027;28;20040;-64
2023/07/24 00:58:57;;;;;;;7.80;2.13;;;;;;;25.58;53.34;100201.66;5034586;28;20024;-61
2023/07/24 01:01:23;;;;;;;8.23;2.10;;;;;;;25.56;53.27;100201.91;5051251;28;20044;-62
2023/07/24 01:03:49;;;;;;;5.40;2.17;;;;;;;25.55;53.54;100200.22;5051169;28;20040;-62
2023/07/24 01:06:15;;;;;;;3.88;2.28;;;;;;;25.53;53.40;100193.31;5051266;28;20460;-63
2023/07/24 01:08:40;;;;;;;3.58;1.65;;;;;;;25.51;53.62;100195.47;5051085;28;20059;-62
2023/07/24 01:11:15;;;;;;;5.78;2.28;;;;;;;25.42;53.67;100192.22;5051434;28;20055;-62
2023/07/24 01:13:48;;;;;;;6.05;2.30;;;;;;;25.32;53.95;100192.03;5051315;28;20037;-62
2023/07/24 01:16:15;;;;;;;4.15;2.20;;;;;;;25.25;53.74;100180.34;5051039;28;20029;-62
2023/07/24 01:18:41;;;;;;;3.78;2.15;;;;;;;25.17;53.96;100175.22;5051053;28;20045;-63
2023/07/24 01:21:09;;;;;;;4.28;2.38;;;;;;;25.11;53.90;100167.97;5051005;28;20120;-63
2023/07/24 01:23:55;;;;;;;4.28;2.13;;;;;;;25.11;54.14;100170.69;5034434;28;20040;-62
2023/07/24 01:26:21;;;;;;;7.32;3.08;;;;;;;25.13;53.94;100171.28;5054984;28;20044;-62
2023/07/24 01:28:47;;;;;;;4.18;2.20;;;;;;;25.15;54.07;100180.13;5055212;28;20082;-64
2023/07/24 01:31:13;;;;;;;7.78;1.92;;;;;;;25.22;53.75;100180.81;5056382;28;20412;-64
2023/07/24 01:33:40;;;;;;;10.70;2.55;;;;;;;25.24;53.67;100170.44;5056334;28;20044;-62
2023/07/24 01:36:07;;;;;;;9.48;3.00;;;;;;;25.27;53.52;100172.69;5055009;28;20045;-62
2023/07/24 01:38:34;;;;;;;6.40;2.00;;;;;;;25.31;53.68;100168.41;5038356;28;20040;-64
2023/07/24 01:41:00;;;;;;;8.13;2.20;;;;;;;25.32;53.97;100170.09;5054878;28;20053;-62
2023/07/24 01:43:29;;;;;;;3.97;2.10;;;;;;;25.30;53.39;100172.22;5054877;28;20082;-62
2023/07/24 01:45:54;;;;;;;7.45;2.85;;;;;;;25.30;53.67;100169.47;5038474;28;20116;-61
2023/07/24 01:48:21;;;;;;;6.35;1.88;;;;;;;25.28;53.95;100169.72;5054824;28;20504;-62
2023/07/24 01:50:46;;;;;;;5.20;1.95;;;;;;;25.26;54.07;100160.09;5054907;28;20048;-62
2023/07/24 01:53:12;;;;;;;6.13;2.03;;;;;;;25.23;54.01;100155.91;5056048;28;20025;-64
2023/07/24 01:55:38;;;;;;;5.72;1.95;;;;;;;25.24;53.85;100156.72;5055970;28;20039;-61
2023/07/24 01:58:03;;;;;;;4.53;1.98;;;;;;;25.24;53.73;100145.75;5054678;28;20044;-62
2023/07/24 02:00:29;;;;;;;6.43;2.03;;;;;;;25.21;53.84;100140.78;5054813;28;20037;-63
2023/07/24 02:02:54;;;;;;;6.10;2.10;;;;;;;25.23;53.90;100144.09;5056080;28;20040;-62
2023/07/24 02:05:19;;;;;;;7.15;2.22;;;;;;;25.23;53.74;100155.91;5054774;28;20037;-62
2023/07/24 02:07:45;;;;;;;3.92;1.90;;;;;;;25.20;53.76;100150.06;5054461;28;20033;-62
2023/07/24 02:10:10;;;;;;;4.47;1.90;;;;;;;25.14;54.05;100149.13;5054816;28;20404;-62
2023/07/24 02:12:35;;;;;;;6.50;2.13;;;;;;;25.08;54.21;100146.50;5055566;28;20032;-62
2023/07/24 02:15:01;;;;;;;6.90;2.10;;;;;;;25.02;54.02;100142.81;5053794;28;20033;-62
2023/07/24 02:17:26;;;;;;;6.68;2.13;;;;;;;24.95;54.72;100160.47;5054019;28;20041;-62
2023/07/24 02:19:52;;;;;;;5.78;2.17;;;;;;;24.88;54.86;100157.84;5052853;28;20037;-62
2023/07/24 02:22:17;;;;;;;6.38;2.28;;;;;;;24.80;54.57;100153.56;5037153;28;20187;-62
2023/07/24 02:24:42;;;;;;;4.55;1.85;;;;;;;24.76;54.74;100146.84;5055134;28;20044;-62
2023/07/24 02:27:12;;;;;;;2.97;2.03;;;;;;;24.70;54.95;100150.56;5053932;28;20060;-62
2023/07/24 02:29:37;;;;;;;6.50;2.40;;;;;;;24.66;54.88;100138.41;5054857;28;20021;-62
2023/07/24 02:32:03;;;;;;;5.78;2.47;;;;;;;24.61;54.94;100140.19;5055090;28;20389;-61
2023/07/24 02:34:28;;;;;;;4.30;3.33;;;;;;;24.58;54.80;100132.44;5055079;28;20036;-63
2023/07/24 02:36:53;;;;;;;8.95;2.88;;;;;;;24.55;55.36;100124.69;5054224;28;20408;-62
2023/07/24 02:39:19;;;;;;;5.80;2.60;;;;;;;24.55;55.19;100122.78;5054883;28;20068;-62
2023/07/24 02:41:45;;;;;;;7.72;2.53;;;;;;;24.55;55.00;100131.00;5052437;28;20040;-62
2023/07/24 02:44:12;;;;;;;5.45;2.53;;;;;;;24.55;55.32;100122.78;5055011;28;20519;-62
2023/07/24 02:46:37;;;;;;;7.88;2.33;;;;;;;24.54;55.32;100126.59;5054897;28;20056;-62
2023/07/24 02:49:02;;;;;;;3.80;2.35;;;;;;;24.49;55.33;100134.69;5053788;28;20025;-62
2023/07/24 02:51:28;;;;;;;10.50;2.67;;;;;;;24.47;55.48;100122.31;5055111;28;20506;-63
2023/07/24 02:53:54;;;;;;;4.63;2.50;;;;;;;24.46;55.08;100118.72;5053845;28;20060;-62
2023/07/24 02:56:20;;;;;;;6.97;2.90;;;;;;;24.48;55.63;100116.59;5053601;28;20035;-63
2023/07/24 02:58:46;;;;;;;7.85;2.47;;;;;;;24.48;55.34;100108.38;5052477;28;20062;-62
2023/07/24 03:01:13;;;;;;;5.47;2.30;;;;;;;24.49;55.97;100115.50;5046419;28;20071;-62
2023/07/24 03:03:42;;;;;;;2.67;2.03;;;;;;;24.52;55.49;100112.31;5033993;28;20482;-62
2023/07/24 03:06:07;;;;;;;6.63;2.83;;;;;;;24.51;55.58;100113.38;5033824;28;20044;-62
2023/07/24 03:08:33;;;;;;;6.47;2.83;;;;;;;24.50;55.52;100128.16;5033434;28;20033;-62
2023/07/24 03:10:59;;;;;;;5.20;1.88;;;;;;;24.48;55.44;100130.31;5016552;28;20041;-62
2023/07/24 03:13:24;;;;;;;3.95;2.33;;;;;;;24.47;56.00;100130.53;5016544;28;20037;-62
2023/07/24 03:15:56;;;;;;;6.63;2.28;;;;;;;24.46;55.88;100129.69;5033226;28;20056;-63
2023/07/24 03:18:22;;;;;;;4.30;2.30;;;;;;;24.44;55.76;100126.34;5043591;28;20120;-61
2023/07/24 03:20:47;;;;;;;7.07;2.58;;;;;;;24.37;55.83;100122.91;5036187;28;20381;-63
2023/07/24 03:23:13;;;;;;;6.22;2.50;;;;;;;24.29;55.88;100120.50;5054282;28;20025;-65
2023/07/24 03:25:38;;;;;;;7.70;2.78;;;;;;;24.18;56.22;100113.09;5054694;28;20059;-63
2023/07/24 03:28:04;;;;;;;4.78;1.98;;;;;;;24.13;55.91;100115.69;5052407;28;20041;-66
2023/07/24 03:30:29;;;;;;;5.95;2.60;;;;;;;24.06;56.50;100110.31;5053216;28;20472;-73
2023/07/24 03:32:55;;;;;;;9.95;2.85;;;;;;;23.93;56.96;100083.13;5053342;28;20020;-69
2023/07/24 03:35:20;;;;;;;6.47;2.65;;;;;;;23.97;56.67;100094.47;5035976;28;20024;-63
2023/07/24 03:37:45;;;;;;;6.53;2.17;;;;;;;23.96;57.05;100087.31;5035472;28;20021;-63
2023/07/24 03:40:11;;;;;;;7.53;3.30;;;;;;;23.94;56.50;100084.81;5052211;28;20074;-63
2023/07/24 03:42:37;;;;;;;9.18;2.28;;;;;;;23.91;56.48;100078.97;5053445;28;20025;-62
2023/07/24 03:45:02;;;;;;;7.03;2.80;;;;;;;23.91;56.81;100073.50;5035535;28;20028;-63
2023/07/24 03:47:28;;;;;;;8.48;2.70;;;;;;;23.92;56.66;100086.97;5051859;28;20439;-63
2023/07/24 03:49:53;;;;;;;6.07;3.10;;;;;;;23.92;57.09;100080.66;5052929;28;20035;-63
2023/07/24 03:52:19;;;;;;;4.85;2.13;;;;;;;23.98;56.65;100082.47;5052299;28;20090;-63
2023/07/24 03:54:45;;;;;;;5.82;3.45;;;;;;;24.04;56.64;100084.22;5053711;28;20017;-63
2023/07/24 03:57:10;;;;;;;7.32;2.65;;;;;;;24.08;57.16;100077.22;5035723;28;20032;-63
2023/07/24 03:59:36;;;;;;;8.00;3.42;;;;;;;24.11;57.00;100090.47;5052236;28;20025;-63
2023/07/24 04:02:01;;;;;;;7.18;2.80;;;;;;;24.17;56.99;100078.59;5050652;28;20020;-63
2023/07/24 04:04:27;;;;;;;9.32;3.42;;;;;;;24.17;56.89;100089.53;5052015;28;20017;-62
2023/07/24 04:06:52;;;;;;;7.60;2.80;;;;;;;24.16;56.76;100082.38;5035452;28;20049;-62
2023/07/24 04:09:17;;;;;;;8.82;3.17;;;;;;;24.18;56.99;100080.25;5052277;28;20088;-63
2023/07/24 04:11:44;;;;;;;5.18;3.03;;;;;;;24.20;57.06;100083.59;5053261;28;20104;-63
2023/07/24 04:14:09;;;;;;;6.47;2.80;;;;;;;24.22;56.67;100087.75;5051745;28;20029;-62
2023/07/24 04:16:35;;;;;;;5.03;2.42;;;;;;;24.22;57.22;100082.28;5052030;28;20079;-62
2023/07/24 04:19:00;;;;;;;8.32;2.83;;;;;;;24.27;56.73;100087.88;5034888;28;20476;-62
2023/07/24 04:21:25;;;;;;;8.95;2.67;;;;;;;24.31;56.78;100085.50;5052913;28;20028;-63
2023/07/24 04:23:51;;;;;;;4.15;2.60;;;;;;;24.35;56.89;100081.22;5051549;28;20392;-63
2023/07/24 04:26:16;;;;;;;10.05;2.90;;;;;;;24.36;56.89;100080.16;5034960;28;20028;-62
2023/07/24 04:28:42;;;;;;;6.07;2.30;;;;;;;24.39;56.95;100078.84;5053178;28;20102;-62
2023/07/24 04:31:07;;;;;;;6.85;2.25;;;;;;;24.40;56.65;100084.06;5051619;28;20025;-62
2023/07/24 04:33:33;;;;;;;5.80;2.75;;;;;;;24.40;57.11;100088.75;5051743;28;20032;-62
2023/07/24 04:35:58;;;;;;;8.07;3.75;;;;;;;24.39;56.91;100093.38;5052598;28;20028;-63
2023/07/24 04:38:25;;;;;;;3.67;2.15;;;;;;;24.45;56.75;100086.97;5051427;28;20049;-63
2023/07/24 04:40:50;;;;;;;6.05;3.85;;;;;;;24.48;56.85;100080.16;5051846;28;20074;-62
2023/07/24 04:43:16;;;;;;;7.95;3.50;;;;;;;24.50;56.29;100100.75;5051389;28;20048;-61
2023/07/24 04:45:41;;;;;;;6.35;2.83;;;;;;;24.54;56.73;100107.41;5052458;28;20396;-61
2023/07/24 04:48:06;;;;;;;6.65;2.67;;;;;;;24.54;56.43;100101.13;5052854;28;20056;-62
2023/07/24 04:50:32;;;;;;;6.18;3.13;;;;;;;24.57;56.25;100117.06;5051429;28;20107;-61
2023/07/24 04:52:58;;;;;;;5.25;2.35;;;;;;;24.59;56.16;100114.94;5053037;28;20071;-62
2023/07/24 04:55:24;;;;;;;3.80;2.20;;;;;;;24.62;56.46;100126.22;5051525;28;20149;-63
2023/07/24 04:57:49;;;;;;;5.20;2.40;;;;;;;24.64;56.36;100118.63;5052369;28;20036;-62
2023/07/24 05:00:15;;;;;;;5.53;2.55;;;;;;;24.65;56.26;100114.78;5052966;28;20037;-62
2023/07/24 05:02:40;;;;;;;6.28;2.88;;;;;;;24.71;56.30;100124.81;5055335;28;20388;-62
2023/07/24 05:05:06;;;;;;;6.32;2.88;;;;;;;24.77;56.19;100137.56;5056729;28;20033;-61
2023/07/24 05:07:32;;;;;;;4.95;2.55;;;;;;;24.79;56.26;100132.69;5056205;28;20040;-62
2023/07/24 05:09:57;;;;;;;6.82;2.45;;;;;;;24.81;55.72;100138.78;5057397;28;20044;-62
2023/07/24 05:12:23;;;;;;;4.35;2.70;;;;;;;24.84;56.13;100141.06;5038810;28;20045;-62
2023/07/24 05:14:48;;;;;;;6.13;2.95;;;;;;;24.87;55.97;100129.59;5055386;28;20037;-62
2023/07/24 05:17:14;;;;;;;4.45;2.50;;;;;;;24.92;55.78;100139.03;5038835;28;20032;-61
2023/07/24 05:19:39;;;;;;;4.45;2.33;;;;;;;24.95;55.56;100135.81;5038347;28;20033;-63
2023/07/24 05:22:05;;;;;;;4.82;2.10;;;;;;;25.07;55.85;100139.38;5037891;28;20033;-64
2023/07/24 05:24:31;;;;;;;5.20;2.63;;;;;;;25.19;55.18;100131.94;5038936;28;20036;-62
2023/07/24 05:26:56;;;;;;;5.45;2.65;;;;;;;25.32;54.92;100134.44;5056539;28;20033;-62
2023/07/24 05:29:23;;;;;;;7.45;2.63;;;;;;;25.60;54.60;100130.94;5022254;28;20037;-61
2023/07/24 05:31:49;;;;;;;6.00;2.25;;;;;;;25.66;54.94;100136.25;5056408;28;20056;-62
2023/07/24 05:34:15;;;;;;;7.20;2.80;;;;;;;25.67;54.36;100135.19;5056330;28;20048;-62
2023/07/24 05:36:40;;;;;;;3.60;1.90;;;;;;;25.75;54.63;100143.03;5055279;28;20433;-63
2023/07/24 05:39:06;;;;;;;7.10;2.20;;;;;;;25.85;54.63;100136.91;5055828;28;20025;-62
2023/07/24 05:41:31;;;;;;;5.22;2.20;;;;;;;25.94;54.61;100133.50;5054529;28;20037;-62
2023/07/24 05:43:56;;;;;;;4.60;1.73;;;;;;;26.02;54.68;100138.59;5055691;28;20078;-61
2023/07/24 05:46:22;;;;;;;5.97;2.13;;;;;;;26.11;54.28;100139.03;5054584;28;20037;-61
2023/07/24 05:48:47;;;;;;;5.95;2.10;;;;;;;26.16;54.37;100132.84;5054609;28;20029;-61
2023/07/24 05:51:13;;;;;;;4.18;2.05;;;;;;;26.19;54.02;100143.31;5037879;28;20098;-63
2023/07/24 05:53:38;;;;;;;2.80;1.80;;;;;;;26.21;54.61;100144.75;5054328;28;20060;-61
2023/07/24 05:56:04;;;;;;;3.67;1.60;;;;;;;26.20;54.31;100134.00;5037528;28;20036;-61
2023/07/24 05:58:30;;;;;;;3.47;1.40;;;;;;;26.28;54.66;100134.41;5055520;28;20119;-61
2023/07/24 06:00:55;;;;;;;4.97;2.22;;;;;;;26.38;54.33;100136.53;5055332;28;20033;-62
2023/07/24 06:03:22;;;;;;;5.18;1.52;;;;;;;26.40;53.88;100124.19;5054176;28;20040;-62
2023/07/24 06:05:51;;;;;;;4.15;1.70;;;;;;;26.53;53.52;100134.84;5054256;28;20033;-62
2023/07/24 06:08:17;;;;;;;4.97;1.88;;;;;;;26.57;53.75;100140.69;5054267;28;20151;-61
2023/07/24 06:10:42;;;;;;;4.40;1.45;;;;;;;26.57;54.03;100129.69;5054618;28;20120;-63
2023/07/24 06:13:07;;;;;;;3.55;1.88;;;;;;;26.60;54.41;100134.69;5054633;28;20427;-61
2023/07/24 06:15:33;;;;;;;2.65;1.90;;;;;;;26.57;53.57;100146.19;5053888;28;20041;-62
2023/07/24 06:17:58;;;;;;;4.10;1.83;;;;;;;26.57;53.81;100140.69;5055013;28;20560;-61
2023/07/24 06:20:24;;;;;;;4.65;1.75;;;;;;;26.53;53.88;100137.59;5036980;28;20049;-61
2023/07/24 06:22:49;;;;;;;4.50;1.80;;;;;;;26.49;54.23;100141.09;5053864;28;20051;-61
2023/07/24 06:25:14;;;;;;;4.82;1.60;;;;;;;26.40;53.85;100142.59;5053753;28;20570;-61
2023/07/24 06:27:40;;;;;;;2.67;1.75;;;;;;;26.36;54.09;100146.91;5053910;28;20059;-60
2023/07/24 06:30:06;;;;;;;6.25;1.52;;;;;;;26.28;53.47;100148.16;5054934;28;20124;-60
2023/07/24 06:32:31;;;;;;;3.92;1.88;;;;;;;26.23;53.47;100136.25;5055134;28;20508;-60
2023/07/24 06:34:56;;;;;;;3.92;1.63;;;;;;;26.26;54.12;100139.34;5054898;28;20399;-61
2023/07/24 06:37:22;;;;;;;1.88;1.30;;;;;;;26.28;53.54;100144.56;5054624;28;20029;-60
2023/07/24 06:39:47;;;;;;;4.05;1.77;;;;;;;26.24;53.44;100143.41;5037882;28;20527;-62
2023/07/24 06:42:12;;;;;;;5.18;1.58;;;;;;;26.18;53.70;100149.91;5020929;28;20055;-61
2023/07/24 06:44:38;;;;;;;4.22;1.40;;;;;;;26.14;53.41;100152.28;5037315;28;20044;-61
2023/07/24 06:47:03;;;;;;;4.35;1.30;;;;;;;26.14;53.83;100146.81;5054078;28;20389;-62
2023/07/24 06:49:29;;;;;;;3.42;1.50;;;;;;;26.15;53.41;100142.16;5059569;28;20158;-62
2023/07/24 06:51:54;;;;;;;3.50;1.88;;;;;;;26.21;53.90;100153.00;5059477;28;20040;-63
2023/07/24 06:54:19;;;;;;;3.03;1.52;;;;;;;26.29;52.81;100143.50;5036469;28;20104;-61
2023/07/24 06:56:45;;;;;;;3.38;1.60;;;;;;;26.40;53.04;100143.44;5053099;28;20041;-62
2023/07/24 06:59:10;;;;;;;2.67;1.40;;;;;;;26.52;53.05;100143.34;5053314;28;20548;-64
2023/07/24 07:01:35;;;;;;;2.80;1.77;;;;;;;26.54;52.98;100141.19;5036423;28;20040;-64
2023/07/24 07:04:01;;;;;;;2.47;1.42;;;;;;;26.58;52.92;100131.34;5052949;28;20488;-64
2023/07/24 07:06:26;;;;;;;4.80;1.65;;;;;;;26.61;52.73;100142.66;5036330;28;20055;-65
2023/07/24 07:08:51;;;;;;;3.67;1.40;;;;;;;26.65;52.87;100136.66;5052957;28;20577;-63
2023/07/24 07:11:17;;;;;;;2.65;1.42;;;;;;;26.61;52.95;100147.31;5052906;28;20029;-64
2023/07/24 07:13:42;;;;;;;2.85;0.90;;;;;;;26.53;52.84;100145.00;5052780;28;20031;-63
2023/07/24 07:16:08;;;;;;;1.08;0.80;;;;;;;26.40;52.96;100134.34;5053008;28;20110;-63
2023/07/24 07:18:33;;;;;;;1.05;0.95;;;;;;;26.31;52.94;100144.06;5054338;28;20044;-63
2023/07/24 07:20:58;;;;;;;3.70;1.20;;;;;;;26.22;53.28;100142.81;5052708;28;20527;-63
2023/07/24 07:23:24;;;;;;;3.88;1.30;;;;;;;26.14;53.07;100145.97;5053695;28;20037;-63
2023/07/24 07:25:51;;;;;;;1.98;1.15;;;;;;;26.11;53.58;100146.41;5052968;28;20048;-63
2023/07/24 07:28:16;;;;;;;1.65;0.90;;;;;;;26.10;53.41;100144.78;5036051;28;20082;-64
2023/07/24 07:30:43;;;;;;;4.47;1.23;;;;;;;26.04;53.06;100141.94;5035810;28;20037;-63
2023/07/24 07:33:09;;;;;;;2.53;0.98;;;;;;;26.04;53.50;100136.47;5052518;28;20052;-63
2023/07/24 07:35:35;;;;;;;1.48;0.90;;;;;;;26.07;53.37;100134.28;5035768;28;20055;-63
2023/07/24 07:38:01;;;;;;;2.03;1.05;;;;;;;26.16;53.30;100133.66;5052510;28;20035;-63
2023/07/24 07:40:26;;;;;;;1.25;1.15;;;;;;;26.36;52.50;100127.69;5052302;28;20037;-63
2023/07/24 07:42:53;;;;;;;1.48;0.80;;;;;;;26.62;52.57;100127.00;5052345;28;20029;-63
2023/07/24 07:45:18;;;;;;;2.22;0.90;;;;;;;26.70;51.93;100132.09;5052294;28;20033;-63
2023/07/24 07:47:44;;;;;;;1.23;0.70;;;;;;;26.77;52.56;100135.50;5051987;28;20064;-63
2023/07/24 07:50:09;;;;;;;1.45;0.80;;;;;;;26.84;52.85;100133.44;5052371;28;20515;-63
2023/07/24 07:52:35;;;;;;;1.95;0.95;;;;;;;26.83;52.19;100128.19;5035677;28;20087;-63
2023/07/24 07:55:01;;;;;;;1.27;1.00;;;;;;;26.85;52.07;100134.28;5052295;28;20036;-63
2023/07/24 07:57:26;;;;;;;1.42;1.15;;;;;;;26.93;52.12;100134.66;5035640;28;20041;-63
2023/07/24 07:59:51;;;;;;;1.25;0.98;;;;;;;27.04;51.87;100138.41;5035478;28;20066;-63
2023/07/24 08:02:17;;;;;;;1.77;1.10;;;;;;;27.04;51.84;100136.47;5018920;28;20032;-63
2023/07/24 08:04:42;;;;;;;1.65;1.30;;;;;;;27.06;51.92;100137.06;5018942;28;20507;-63
2023/07/24 08:07:07;;;;;;;1.85;1.20;;;;;;;27.20;52.10;100129.25;5035363;28;20512;-63
2023/07/24 08:09:33;;;;;;;1.80;0.98;;;;;;;27.34;51.56;100129.72;5035137;28;20029;-63
2023/07/24 08:11:59;;;;;;;4.32;1.50;;;;;;;27.41;51.21;100122.16;5035285;28;20408;-64
2023/07/24 08:14:24;;;;;;;1.35;1.02;;;;;;;27.32;52.03;100118.13;5035244;28;20500;-63
2023/07/24 08:16:50;;;;;;;2.45;1.20;;;;;;;27.27;51.67;100120.81;5018640;28;20128;-63
2023/07/24 08:19:15;;;;;;;1.98;1.25;;;;;;;27.32;51.35;100116.22;5051675;28;20060;-63
2023/07/24 08:21:41;;;;;;;1.98;1.40;;;;;;;27.49;51.23;100110.69;5034890;28;20044;-62
2023/07/24 08:24:07;;;;;;;1.00;0.77;;;;;;;27.59;51.63;100105.28;5018571;28;20036;-62
2023/07/24 08:26:32;;;;;;;0.93;0.73;;;;;;;28.39;49.52;100105.28;5051648;28;20443;-62
2023/07/24 08:28:58;;;;;;;0.95;0.70;;;;;;;28.65;49.69;100098.03;5018641;28;20488;-63
2023/07/24 08:31:23;;;;;;;0.60;0.60;;;;;;;29.25;48.84;100097.59;5051503;28;20036;-63
2023/07/24 08:33:49;;;;;;;4.05;1.08;;;;;;;29.89;48.60;100098.09;5051028;28;20041;-62
2023/07/24 08:36:14;;;;;;;1.35;0.75;;;;;;;30.04;48.61;100087.06;5051730;28;20037;-62
2023/07/24 08:38:40;;;;;;;1.48;0.50;;;;;;;29.92;49.22;100080.97;5052740;28;20036;-63
2023/07/24 08:41:15;;;;;;;0.60;0.60;;;;;;;29.81;49.07;100079.31;5035331;28;20103;-62
2023/07/24 08:43:42;;;;;;;0.85;0.80;;;;;;;29.69;49.23;100090.56;5018167;28;20064;-62
2023/07/24 08:46:08;;;;;;;1.38;0.75;;;;;;;29.60;49.03;100083.09;5051096;28;20071;-63
2023/07/24 08:48:42;;;;;;;1.02;0.80;;;;;;;29.52;49.52;100086.38;5051498;28;20033;-62
2023/07/24 08:51:13;;;;;;;1.02;0.75;;;;;;;29.59;48.61;100098.00;5032654;28;20055;-63
2023/07/24 08:53:39;;;;;;;1.45;0.70;;;;;;;29.55;49.12;100083.06;5052493;28;20082;-63
2023/07/24 08:56:07;;;;;;;3.22;1.25;;;;;;;29.58;48.90;100085.28;5052374;28;20049;-63
2023/07/24 08:58:33;;;;;;;1.58;0.82;;;;;;;29.52;48.98;100084.44;5051319;28;20036;-63
2023/07/24 09:01:00;;;;;;;2.30;0.90;;;;;;;29.53;48.53;100072.31;5051431;28;20421;-63
2023/07/24 09:03:26;;;;;;;2.78;1.00;;;;;;;29.50;49.03;100083.06;5052525;28;20424;-63
2023/07/24 09:05:51;;;;;;;2.05;1.02;;;;;;;29.34;48.95;100071.97;5034509;28;20037;-62
2023/07/24 09:08:17;;;;;;;5.05;0.90;;;;;;;29.24;48.95;100066.41;5018207;28;20358;-63
2023/07/24 09:10:42;;;;;;;3.03;1.00;;;;;;;29.26;48.27;100058.69;5034682;28;20029;-61
2023/07/24 09:13:11;;;;;;;1.20;0.90;;;;;;;29.22;48.81;100068.63;5051125;28;20037;-62
2023/07/24 09:15:41;;;;;;;2.60;1.02;;;;;;;29.13;49.07;100069.38;5051013;28;20580;-62
2023/07/24 09:18:06;;;;;;;3.45;1.27;;;;;;;29.07;48.88;100063.00;5034708;28;20044;-62
2023/07/24 09:20:41;;;;;;;3.90;1.38;;;;;;;29.00;48.73;100059.66;5052296;28;20033;-65
2023/07/24 09:23:08;;;;;;;1.65;0.88;;;;;;;28.92;48.96;100060.19;5034568;28;20556;-62
2023/07/24 09:25:34;;;;;;;1.65;1.05;;;;;;;28.86;48.70;100047.47;5050922;28;20037;-62
2023/07/24 09:28:00;;;;;;;0.95;0.70;;;;;;;28.86;48.96;100042.78;5034705;28;20060;-63
2023/07/24 09:30:25;;;;;;;1.95;1.00;;;;;;;28.83;49.21;100042.47;5051195;28;20033;-62
2023/07/24 09:32:54;;;;;;;4.00;1.10;;;;;;;28.75;48.51;100037.47;5034244;28;20033;-63
2023/07/24 09:35:20;;;;;;;1.88;0.98;;;;;;;28.70;48.58;100034.69;5034518;28;20037;-63
2023/07/24 09:37:46;;;;;;;2.20;0.80;;;;;;;28.55;48.56;100024.38;5050867;28;20444;-62
2023/07/24 09:40:14;;;;;;;1.33;1.08;;;;;;;28.43;49.39;100022.91;5051978;28;20033;-62
2023/07/24 09:42:40;;;;;;;1.95;1.00;;;;;;;28.37;49.28;100012.94;5033764;28;20033;-63
2023/07/24 09:45:08;;;;;;;1.00;0.88;;;;;;;28.28;49.52;100016.19;5052188;28;20025;-61
2023/07/24 09:47:34;;;;;;;2.50;2.00;;;;;;;28.11;49.45;100015.50;5055709;28;20053;-61
2023/07/24 09:49:59;;;;;;;3.55;1.10;;;;;;;27.92;50.12;100016.97;5054364;28;20029;-61
2023/07/24 09:52:27;;;;;;;1.65;0.90;;;;;;;27.59;50.37;100008.94;5052955;28;20024;-64
2023/07/24 09:55:10;;;;;;;7.85;1.75;;;;;;;27.30;50.64;100018.53;5049978;28;20017;-63
2023/07/24 09:57:36;;;;;;;5.65;2.38;;;;;;;27.15;50.29;100000.78;5049514;28;20086;-64
2023/07/24 10:00:02;;;;;;;2.80;1.13;;;;;;;27.01;51.57;100001.41;5053924;28;20037;-64
2023/07/24 10:02:28;;;;;;;2.17;1.00;;;;;;;26.80;51.35;100010.50;5037725;28;20044;-62
2023/07/24 10:04:54;;;;;;;4.72;1.23;;;;;;;26.61;51.82;100024.50;5055892;28;20025;-61
2023/07/24 10:07:22;;;;;;;3.15;2.00;;;;;;;26.48;51.63;100013.88;5054406;28;20476;-62
2023/07/24 10:09:49;;;;;;;2.90;1.30;;;;;;;26.40;52.11;100018.97;5054652;28;20037;-65
2023/07/24 10:12:19;;;;;;;2.15;1.17;;;;;;;26.36;52.25;100018.63;5038058;28;20033;-61
2023/07/24 10:14:45;;;;;;;2.47;1.10;;;;;;;26.31;52.16;100020.47;5022230;28;20539;-61
2023/07/24 10:17:11;;;;;;;4.45;1.40;;;;;;;26.23;52.18;100020.91;5021160;28;20435;-62
2023/07/24 10:19:40;;;;;;;4.45;1.67;;;;;;;26.16;52.42;100042.22;5037638;28;20496;-64
2023/07/24 10:22:05;;;;;;;1.83;1.00;;;;;;;26.05;52.13;100047.50;5037747;28;20382;-62
2023/07/24 10:24:33;;;;;;;1.65;1.30;;;;;;;25.99;53.14;100045.75;5021232;28;20099;-63
2023/07/24 10:26:58;;;;;;;5.95;1.60;;;;;;;26.04;52.74;100047.75;5054165;28;20025;-62
2023/07/24 10:29:25;;;;;;;3.08;1.40;;;;;;;26.24;52.08;100037.16;5054208;28;20033;-61
2023/07/24 10:31:54;;;;;;;2.78;1.35;;;;;;;26.35;52.83;100038.13;5037715;28;20037;-61
2023/07/24 10:34:20;;;;;;;5.65;1.55;;;;;;;26.28;52.57;100037.47;5053964;28;20024;-62
2023/07/24 10:36:46;;;;;;;4.80;2.30;;;;;;;26.29;53.02;100044.63;5037572;28;20082;-61
2023/07/24 10:39:16;;;;;;;4.82;1.83;;;;;;;26.31;53.13;100065.25;5055235;28;20053;-60
2023/07/24 10:41:44;;;;;;;1.98;1.30;;;;;;;26.20;53.35;100088.16;5054192;28;20057;-61
2023/07/24 10:44:09;;;;;;;6.32;1.55;;;;;;;26.07;53.79;100084.88;5055065;28;20021;-64
2023/07/24 10:46:37;;;;;;;6.63;1.13;;;;;;;26.07;53.68;100091.19;5036991;28;20362;-63
2023/07/24 10:49:02;;;;;;;1.20;0.95;;;;;;;25.93;53.74;100068.72;5053777;28;20496;-61
2023/07/24 10:51:29;;;;;;;0.93;0.57;;;;;;;25.93;53.48;100060.50;5036472;28;20044;-61
2023/07/24 10:53:54;;;;;;;1.02;0.40;;;;;;;25.97;53.08;100050.66;5054593;28;20053;-61
2023/07/24 10:56:20;;;;;;;0.63;0.40;;;;;;;26.13;53.16;100061.91;5053433;28;20069;-61
2023/07/24 10:58:45;;;;;;;1.08;0.57;;;;;;;26.54;52.73;100070.56;5054504;28;20166;-62
2023/07/24 11:01:11;;;;;;;0.60;0.20;;;;;;;26.89;52.34;100069.44;5054256;28;20079;-62
2023/07/24 11:03:37;;;;;;;1.80;0.47;;;;;;;26.97;52.90;100069.00;5036504;28;20113;-62
2023/07/24 11:06:03;;;;;;;0.52;0.50;;;;;;;27.11;52.40;100082.13;5053193;28;20112;-61
2023/07/24 11:08:29;;;;;;;0.60;0.47;;;;;;;27.27;52.33;100068.56;5053368;28;20512;-61
2023/07/24 11:10:57;;;;;;;0.60;0.35;;;;;;;27.30;52.13;100074.38;5052949;28;20507;-61
2023/07/24 11:13:24;;;;;;;2.83;0.32;;;;;;;27.50;51.15;100076.59;5036464;28;20048;-63
2023/07/24 11:15:50;;;;;;;0.77;0.32;;;;;;;28.39;51.10;100072.22;5036124;28;20037;-61
2023/07/24 11:18:16;;;;;;;0.40;0.40;;;;;;;28.60;50.15;100059.38;5053009;28;20055;-61